Time;durP1;ratioP1;P1;durP2;ratioP2;P2;SDS_P1;SDS_P2;PMS_P1;PMS_P2;Temp;Humidity;BMP_temperature;BMP_pressure;BME280_temperature;BME280_humidity;BME280_pressure;Samples;Min_cycle;Max_cycle;Signal;HPM_P1;HPM_P2
2022/08/31 00:05:37;;;;;;;2.63;0.60;;;20.20;72.50;;;;;;5035215;28;20048;-70
2022/08/31 00:08:02;;;;;;;0.70;0.60;;;20.20;72.40;;;;;;5032667;28;20037;-70
2022/08/31 00:10:28;;;;;;;3.40;0.68;;;20.10;72.40;;;;;;5032192;28;20065;-70
2022/08/31 00:12:54;;;;;;;0.65;0.55;;;20.10;72.30;;;;;;5033103;28;20025;-70
2022/08/31 00:15:22;;;;;;;0.70;0.60;;;20.10;72.30;;;;;;5028216;28;20041;-69
2022/08/31 00:17:47;;;;;;;0.55;0.55;;;20.00;72.10;;;;;;5033492;28;20435;-70
2022/08/31 00:20:16;;;;;;;0.63;0.60;;;20.00;72.20;;;;;;5031393;28;20113;-70
2022/08/31 00:22:41;;;;;;;1.20;0.68;;;20.00;72.10;;;;;;5032278;28;20094;-70
2022/08/31 00:25:08;;;;;;;1.45;0.90;;;20.00;72.10;;;;;;5031101;28;20116;-70
2022/08/31 00:27:34;;;;;;;0.95;0.50;;;20.00;72.10;;;;;;5033273;28;20388;-70
2022/08/31 00:29:59;;;;;;;1.90;0.77;;;20.00;72.00;;;;;;5044488;28;20086;-70
2022/08/31 00:32:25;;;;;;;3.55;0.68;;;20.00;72.10;;;;;;5038251;28;20103;-70
2022/08/31 00:34:51;;;;;;;0.73;0.60;;;19.90;72.10;;;;;;5040619;28;20033;-70
2022/08/31 00:37:18;;;;;;;1.40;0.50;;;19.90;72.20;;;;;;5031898;28;20025;-70
2022/08/31 00:39:44;;;;;;;9.50;0.77;;;19.90;72.10;;;;;;5031980;28;20029;-70
2022/08/31 00:42:11;;;;;;;1.05;0.60;;;19.90;72.20;;;;;;5031875;28;20491;-70
2022/08/31 00:44:37;;;;;;;1.15;0.65;;;19.80;72.10;;;;;;5034760;28;20029;-70
2022/08/31 00:47:03;;;;;;;6.03;0.60;;;19.80;72.70;;;;;;5045280;28;20017;-70
2022/08/31 00:49:33;;;;;;;0.70;0.60;;;19.80;72.10;;;;;;5035666;28;20052;-70
2022/08/31 00:52:14;;;;;;;2.95;0.80;;;19.80;72.00;;;;;;5031431;28;20028;-70
2022/08/31 00:54:45;;;;;;;2.88;0.70;;;19.70;72.00;;;;;;5032096;28;20042;-70
2022/08/31 00:57:11;;;;;;;2.13;1.55;;;19.70;72.00;;;;;;5029066;28;20025;-70
2022/08/31 00:59:39;;;;;;;1.45;0.50;;;19.70;72.00;;;;;;5037473;28;20036;-70
2022/08/31 01:02:06;;;;;;;3.80;0.77;;;19.70;72.00;;;;;;5035959;28;20039;-70
2022/08/31 01:04:32;;;;;;;2.78;0.70;;;19.60;72.00;;;;;;5031376;28;20029;-70
2022/08/31 01:06:57;;;;;;;0.65;0.60;;;19.60;72.10;;;;;;5038208;28;20032;-70
2022/08/31 01:09:27;;;;;;;0.77;0.60;;;19.60;72.20;;;;;;5036336;28;20044;-70
2022/08/31 01:11:53;;;;;;;1.05;0.70;;;19.60;72.30;;;;;;5037316;28;20034;-70
2022/08/31 01:14:20;;;;;;;0.52;0.52;;;19.60;72.50;;;;;;5032286;28;20037;-70
2022/08/31 01:16:52;;;;;;;0.80;0.60;;;19.60;72.60;;;;;;5040322;28;20032;-70
2022/08/31 01:19:28;;;;;;;1.30;0.52;;;19.60;72.80;;;;;;5042655;28;20033;-70
2022/08/31 01:22:18;;;;;;;2.67;0.70;;;19.50;72.80;;;;;;5031197;28;20036;-69
2022/08/31 01:24:46;;;;;;;0.60;0.50;;;19.50;72.90;;;;;;5038169;28;20104;-69
2022/08/31 01:27:14;;;;;;;0.60;0.60;;;19.40;73.00;;;;;;5036625;28;20036;-69
2022/08/31 01:29:40;;;;;;;0.75;0.63;;;19.40;73.00;;;;;;5050905;28;20045;-69
2022/08/31 01:32:06;;;;;;;0.55;0.55;;;19.40;73.00;;;;;;5037379;28;20041;-69
2022/08/31 01:34:33;;;;;;;1.10;0.70;;;19.30;73.00;;;;;;5042644;28;20038;-69
2022/08/31 01:37:00;;;;;;;1.17;0.50;;;19.30;73.00;;;;;;5039340;28;20034;-69
2022/08/31 01:39:26;;;;;;;1.58;0.63;;;19.30;73.10;;;;;;5040143;28;20037;-69
2022/08/31 01:41:52;;;;;;;1.27;1.08;;;19.30;73.10;;;;;;5039025;28;20041;-69
2022/08/31 01:44:20;;;;;;;1.05;0.80;;;19.30;73.20;;;;;;5028272;28;20057;-69
2022/08/31 01:46:48;;;;;;;0.57;0.57;;;19.20;73.20;;;;;;5036314;28;20028;-69
2022/08/31 01:49:15;;;;;;;2.65;0.60;;;19.20;73.30;;;;;;5037974;28;20459;-69
2022/08/31 01:51:42;;;;;;;7.13;0.80;;;19.20;73.40;;;;;;5039752;28;20473;-69
2022/08/31 01:54:07;;;;;;;0.40;0.40;;;19.20;73.60;;;;;;5035479;28;20034;-69
2022/08/31 01:56:40;;;;;;;0.40;0.40;;;19.10;73.70;;;;;;5042094;28;20537;-69
2022/08/31 01:59:12;;;;;;;1.38;0.73;;;19.10;73.90;;;;;;5038720;28;20473;-69
2022/08/31 02:02:07;;;;;;;1.65;0.90;;;19.10;74.10;;;;;;5019370;28;20129;-69
2022/08/31 02:04:35;;;;;;;2.67;0.80;;;19.00;74.20;;;;;;5037666;28;20170;-69
2022/08/31 02:07:01;;;;;;;0.73;0.52;;;19.00;74.40;;;;;;5039933;28;20091;-69
2022/08/31 02:09:28;;;;;;;1.83;0.70;;;19.00;74.50;;;;;;5036848;28;20033;-69
2022/08/31 02:11:53;;;;;;;0.70;0.70;;;18.90;74.60;;;;;;5038107;28;20099;-69
2022/08/31 02:14:20;;;;;;;0.88;0.50;;;19.00;74.90;;;;;;5038457;28;20049;-69
2022/08/31 02:16:47;;;;;;;0.52;0.43;;;18.90;75.30;;;;;;5040176;28;20100;-69
2022/08/31 02:19:13;;;;;;;1.80;0.60;;;18.90;76.20;;;;;;5043953;28;20564;-69
2022/08/31 02:21:39;;;;;;;8.30;0.90;;;18.90;75.90;;;;;;5036176;28;20075;-69
2022/08/31 02:24:07;;;;;;;3.15;0.60;;;18.90;76.20;;;;;;5036158;28;20030;-69
2022/08/31 02:26:32;;;;;;;2.45;0.60;;;18.70;76.40;;;;;;5038347;28;20022;-69
2022/08/31 02:28:58;;;;;;;0.60;0.60;;;18.80;76.70;;;;;;5035287;28;20369;-69
2022/08/31 02:31:24;;;;;;;1.05;0.77;;;18.70;76.80;;;;;;5035075;28;20508;-69
2022/08/31 02:33:55;;;;;;;4.82;0.73;;;18.70;76.90;;;;;;5038415;28;20025;-68
2022/08/31 02:36:23;;;;;;;2.75;0.73;;;18.60;77.00;;;;;;5032434;28;20073;-69
2022/08/31 02:38:49;;;;;;;1.88;0.60;;;18.70;77.20;;;;;;5033667;28;20029;-69
2022/08/31 02:41:16;;;;;;;0.95;0.55;;;18.70;77.50;;;;;;5032365;28;20040;-68
2022/08/31 02:43:42;;;;;;;1.13;0.68;;;18.70;77.60;;;;;;5032686;28;20022;-70
2022/08/31 02:46:09;;;;;;;0.88;0.60;;;18.60;77.70;;;;;;5032696;28;20021;-70
2022/08/31 02:48:40;;;;;;;1.25;0.82;;;18.60;77.90;;;;;;5046408;28;20025;-69
2022/08/31 02:51:09;;;;;;;0.70;0.70;;;18.60;78.00;;;;;;5052501;28;20032;-69
2022/08/31 02:53:36;;;;;;;5.65;0.88;;;18.50;78.00;;;;;;5038603;28;20136;-69
2022/08/31 02:56:04;;;;;;;3.22;0.77;;;18.60;78.30;;;;;;5039907;28;20034;-69
2022/08/31 02:58:31;;;;;;;1.08;0.80;;;18.50;78.40;;;;;;5043645;28;20113;-69
2022/08/31 03:00:58;;;;;;;2.22;0.95;;;18.50;78.60;;;;;;5050190;28;20117;-69
2022/08/31 03:03:24;;;;;;;2.22;0.65;;;18.60;78.90;;;;;;5047856;28;20560;-69
2022/08/31 03:05:50;;;;;;;2.33;0.80;;;18.50;79.00;;;;;;5039011;28;20021;-69
2022/08/31 03:08:16;;;;;;;1.48;0.90;;;18.50;79.10;;;;;;5049275;28;20025;-69
2022/08/31 03:10:43;;;;;;;1.27;0.80;;;18.50;79.30;;;;;;5043637;28;20046;-69
2022/08/31 03:13:10;;;;;;;0.82;0.70;;;18.50;79.50;;;;;;5047015;28;20025;-69
2022/08/31 03:15:35;;;;;;;1.17;0.73;;;18.50;79.70;;;;;;5045565;28;20048;-69
2022/08/31 03:18:03;;;;;;;2.45;1.00;;;18.40;79.80;;;;;;5036637;28;20125;-69
2022/08/31 03:20:29;;;;;;;2.22;1.08;;;18.50;80.00;;;;;;5039388;28;20115;-69
2022/08/31 03:22:54;;;;;;;0.70;0.70;;;18.50;80.10;;;;;;5040133;28;20125;-69
2022/08/31 03:25:21;;;;;;;2.55;1.30;;;18.40;80.00;;;;;;5046608;28;20028;-69
2022/08/31 03:27:48;;;;;;;2.60;0.90;;;18.40;80.10;;;;;;5045190;28;20481;-69
2022/08/31 03:30:17;;;;;;;3.70;0.80;;;18.40;80.20;;;;;;5019394;28;20044;-69
2022/08/31 03:32:49;;;;;;;1.38;0.80;;;18.40;80.20;;;;;;5045502;28;20075;-69
2022/08/31 03:35:16;;;;;;;3.95;0.90;;;18.40;80.30;;;;;;5047213;28;20033;-69
2022/08/31 03:37:43;;;;;;;1.13;0.80;;;18.40;80.40;;;;;;5043979;28;20495;-69
2022/08/31 03:40:10;;;;;;;0.70;0.70;;;18.40;80.40;;;;;;5045197;28;20063;-69
2022/08/31 03:42:36;;;;;;;2.17;1.10;;;18.50;80.60;;;;;;5045663;28;20033;-69
2022/08/31 03:45:02;;;;;;;2.15;1.10;;;18.40;80.60;;;;;;5049875;28;20074;-69
2022/08/31 03:47:30;;;;;;;1.25;1.08;;;18.40;80.60;;;;;;5046643;28;20111;-69
2022/08/31 03:49:56;;;;;;;1.20;0.90;;;18.40;80.70;;;;;;5040072;28;20128;-69
2022/08/31 03:52:24;;;;;;;4.88;1.10;;;18.40;80.80;;;;;;5046242;28;20036;-69
2022/08/31 03:54:59;;;;;;;2.65;0.90;;;18.40;80.90;;;;;;5048339;28;20492;-69
2022/08/31 03:57:26;;;;;;;2.70;1.10;;;18.40;81.00;;;;;;5039880;28;20030;-69
2022/08/31 03:59:54;;;;;;;1.40;1.02;;;18.40;81.10;;;;;;5025860;28;20025;-69
2022/08/31 04:02:40;;;;;;;2.63;1.00;;;18.30;81.20;;;;;;5051383;28;20090;-69
2022/08/31 04:05:35;;;;;;;0.95;0.93;;;18.40;81.30;;;;;;5031447;28;20574;-69
2022/08/31 04:08:13;;;;;;;2.80;1.10;;;18.40;81.30;;;;;;5049280;28;20040;-69
2022/08/31 04:11:08;;;;;;;2.10;1.13;;;18.30;81.30;;;;;;5049655;28;20183;-69
2022/08/31 04:14:00;;;;;;;2.70;1.15;;;18.30;81.40;;;;;;5024959;28;20114;-69
2022/08/31 04:16:46;;;;;;;1.55;1.10;;;18.30;81.50;;;;;;5021020;28;20033;-69
2022/08/31 04:19:34;;;;;;;2.78;0.98;;;18.20;81.50;;;;;;5034569;28;20491;-69
2022/08/31 04:22:13;;;;;;;2.65;1.13;;;18.30;81.60;;;;;;5049747;28;20123;-69
2022/08/31 04:24:51;;;;;;;1.55;0.98;;;18.20;81.60;;;;;;5026344;28;20112;-70
2022/08/31 04:27:16;;;;;;;2.53;0.90;;;18.20;81.80;;;;;;5024528;28;20128;-69
2022/08/31 04:29:42;;;;;;;3.13;1.10;;;18.20;82.60;;;;;;5033005;28;20017;-70
2022/08/31 04:32:07;;;;;;;1.17;1.08;;;18.20;82.20;;;;;;5024834;28;20515;-69
2022/08/31 04:34:33;;;;;;;2.60;1.02;;;18.20;82.40;;;;;;5033313;28;20752;-69
2022/08/31 04:36:59;;;;;;;1.00;0.93;;;18.20;82.60;;;;;;5030722;28;20473;-69
2022/08/31 04:39:24;;;;;;;4.57;2.00;;;18.20;82.80;;;;;;5032003;28;20036;-69
2022/08/31 04:41:50;;;;;;;2.40;1.40;;;18.10;82.80;;;;;;5031372;28;20033;-68
2022/08/31 04:44:16;;;;;;;6.50;1.30;;;18.20;83.00;;;;;;5040100;28;20393;-70
2022/08/31 04:46:42;;;;;;;1.50;1.20;;;18.10;83.00;;;;;;5033609;28;20477;-69
2022/08/31 04:49:09;;;;;;;3.22;1.40;;;18.10;83.20;;;;;;5033805;28;20504;-70
2022/08/31 04:51:37;;;;;;;2.00;1.20;;;18.10;83.40;;;;;;5033177;28;20083;-72
2022/08/31 04:54:06;;;;;;;6.72;1.30;;;18.10;83.60;;;;;;5045552;28;20473;-70
2022/08/31 04:56:36;;;;;;;3.75;1.20;;;18.10;83.70;;;;;;5041933;28;20060;-70
2022/08/31 04:59:05;;;;;;;1.30;1.20;;;18.00;83.80;;;;;;5041397;28;20022;-70
2022/08/31 05:01:41;;;;;;;2.72;1.20;;;18.00;83.90;;;;;;5044293;28;20029;-70
2022/08/31 05:04:44;;;;;;;1.58;1.20;;;18.00;84.00;;;;;;5035978;28;20031;-70
2022/08/31 05:07:10;;;;;;;1.75;1.10;;;18.00;84.00;;;;;;5038117;28;20401;-70
2022/08/31 05:09:38;;;;;;;2.88;1.20;;;18.00;84.10;;;;;;5042439;28;20117;-70
2022/08/31 05:12:03;;;;;;;1.15;1.00;;;17.90;84.20;;;;;;5038048;28;20128;-71
2022/08/31 05:14:29;;;;;;;1.23;1.10;;;18.00;84.40;;;;;;5035860;28;20045;-70
2022/08/31 05:17:00;;;;;;;6.10;1.30;;;18.00;84.50;;;;;;5038395;28;20495;-70
2022/08/31 05:19:27;;;;;;;2.17;1.13;;;17.90;84.50;;;;;;5041237;28;20056;-70
2022/08/31 05:21:52;;;;;;;1.23;0.95;;;17.90;84.70;;;;;;5041841;28;20052;-70
2022/08/31 05:24:21;;;;;;;2.13;1.30;;;17.90;84.80;;;;;;5034170;28;20040;-70
2022/08/31 05:26:49;;;;;;;3.85;1.27;;;17.90;85.00;;;;;;5032209;28;20477;-69
2022/08/31 05:29:22;;;;;;;3.03;1.10;;;17.90;85.20;;;;;;5033343;28;20037;-70
2022/08/31 05:31:50;;;;;;;3.28;1.38;;;17.90;85.30;;;;;;5027366;28;20029;-70
2022/08/31 05:34:17;;;;;;;2.50;1.25;;;17.90;85.40;;;;;;5037318;28;20107;-70
2022/08/31 05:36:47;;;;;;;1.13;1.00;;;17.90;85.60;;;;;;5039494;28;20036;-70
2022/08/31 05:39:13;;;;;;;4.57;1.25;;;17.90;85.80;;;;;;5041141;28;20443;-71
2022/08/31 05:41:42;;;;;;;5.53;1.20;;;17.90;85.90;;;;;;5028180;28;20026;-70
2022/08/31 05:44:08;;;;;;;4.05;1.30;;;17.90;86.10;;;;;;5044575;28;20032;-70
2022/08/31 05:46:35;;;;;;;2.63;1.30;;;17.90;86.30;;;;;;5044866;28;20033;-70
2022/08/31 05:49:05;;;;;;;1.48;1.08;;;17.90;86.50;;;;;;5039957;28;20029;-70
2022/08/31 05:51:31;;;;;;;1.67;1.20;;;17.90;86.70;;;;;;5037360;28;20083;-71
2022/08/31 05:53:59;;;;;;;2.22;1.25;;;17.90;87.00;;;;;;5039020;28;20074;-71
2022/08/31 05:56:25;;;;;;;3.25;1.20;;;17.90;87.20;;;;;;5044407;28;20472;-70
2022/08/31 05:58:54;;;;;;;4.68;1.13;;;17.80;87.40;;;;;;5042595;28;20025;-70
2022/08/31 06:01:29;;;;;;;2.60;1.50;;;17.90;87.70;;;;;;5042356;28;20021;-70
2022/08/31 06:04:05;;;;;;;2.63;1.30;;;17.90;88.00;;;;;;5046472;28;20021;-70
2022/08/31 06:06:31;;;;;;;1.75;1.30;;;17.90;88.10;;;;;;5042074;28;20028;-70
2022/08/31 06:08:56;;;;;;;4.53;1.30;;;17.90;88.30;;;;;;5041417;28;20037;-70
2022/08/31 06:11:26;;;;;;;1.50;0.90;;;17.90;88.50;;;;;;5046649;28;20045;-70
2022/08/31 06:13:54;;;;;;;1.98;1.08;;;17.90;88.80;;;;;;5046006;28;20057;-69
2022/08/31 06:16:21;;;;;;;5.22;1.30;;;17.90;89.50;;;;;;5047364;28;20053;-69
2022/08/31 06:18:49;;;;;;;1.20;1.10;;;17.90;89.10;;;;;;5047072;28;20499;-69
2022/08/31 06:21:21;;;;;;;3.22;1.30;;;17.90;89.20;;;;;;5048203;28;20036;-70
2022/08/31 06:23:49;;;;;;;3.35;1.27;;;17.90;89.30;;;;;;5043173;28;20033;-69
2022/08/31 06:26:17;;;;;;;3.10;1.25;;;18.00;89.50;;;;;;5048848;28;20029;-69
2022/08/31 06:28:45;;;;;;;2.38;1.40;;;18.00;89.70;;;;;;5027248;28;20052;-69
2022/08/31 06:31:19;;;;;;;3.33;1.10;;;18.00;89.90;;;;;;5050062;28;20025;-68
2022/08/31 06:33:46;;;;;;;1.88;0.90;;;18.00;89.50;;;;;;5039802;28;20101;-69
2022/08/31 06:36:17;;;;;;;1.05;1.00;;;18.00;89.10;;;;;;5045828;28;20528;-69
2022/08/31 06:39:00;;;;;;;1.23;1.08;;;18.00;89.20;;;;;;5045269;28;20025;-68
2022/08/31 06:41:51;;;;;;;2.80;0.98;;;18.00;89.10;;;;;;5041413;28;20052;-69
2022/08/31 06:44:30;;;;;;;2.10;0.95;;;18.00;88.90;;;;;;5044020;28;20484;-69
2022/08/31 06:47:18;;;;;;;4.47;0.90;;;18.10;88.70;;;;;;5041337;28;20094;-69
2022/08/31 06:49:44;;;;;;;1.50;0.80;;;18.10;88.20;;;;;;5049264;28;20032;-68
2022/08/31 06:52:11;;;;;;;2.42;1.00;;;18.10;87.80;;;;;;5047095;28;20071;-68
2022/08/31 06:54:40;;;;;;;0.73;0.70;;;18.10;87.70;;;;;;5046467;28;20123;-69
2022/08/31 06:57:24;;;;;;;4.13;1.33;;;18.20;87.20;;;;;;5046276;28;20043;-70
2022/08/31 06:59:52;;;;;;;6.53;0.80;;;18.20;87.00;;;;;;5039460;28;20102;-70
2022/08/31 07:02:41;;;;;;;1.55;0.80;;;18.20;86.30;;;;;;5037913;28;20083;-70
2022/08/31 07:05:08;;;;;;;2.33;1.00;;;18.20;86.00;;;;;;5042731;28;20025;-70
2022/08/31 07:07:35;;;;;;;2.97;0.82;;;18.20;85.90;;;;;;5047979;28;20025;-70
2022/08/31 07:10:01;;;;;;;3.92;1.10;;;18.30;85.80;;;;;;5044254;28;20045;-70
2022/08/31 07:12:27;;;;;;;3.55;1.10;;;18.30;85.60;;;;;;5032902;28;20098;-70
2022/08/31 07:14:53;;;;;;;8.50;1.05;;;18.30;85.20;;;;;;5043572;28;20442;-71
2022/08/31 07:17:18;;;;;;;2.22;0.80;;;18.40;85.30;;;;;;5041926;28;20024;-70
2022/08/31 07:19:44;;;;;;;1.30;0.70;;;18.40;85.10;;;;;;5047117;28;20079;-71
2022/08/31 07:22:10;;;;;;;1.13;0.63;;;18.40;85.20;;;;;;5031329;28;20036;-70
2022/08/31 07:24:36;;;;;;;2.17;0.80;;;18.40;85.10;;;;;;5034532;28;20132;-71
2022/08/31 07:27:11;;;;;;;1.25;0.75;;;18.40;85.20;;;;;;5038014;28;20055;-71
2022/08/31 07:29:43;;;;;;;0.80;0.80;;;18.40;85.20;;;;;;5045857;28;20034;-71
2022/08/31 07:32:13;;;;;;;1.92;0.90;;;18.40;85.30;;;;;;5044891;28;20049;-73
2022/08/31 07:34:40;;;;;;;2.10;1.02;;;18.50;85.30;;;;;;5039892;28;20041;-71
2022/08/31 07:42:54;;;;;;;1.17;0.80;;;18.60;85.00;;;;;;5037442;28;20099;-71
2022/08/31 07:45:23;;;;;;;0.68;0.68;;;18.60;85.10;;;;;;5051000;28;20113;-71
2022/08/31 07:47:50;;;;;;;0.52;0.52;;;18.60;85.30;;;;;;5037895;28;20021;-71
2022/08/31 07:50:18;;;;;;;0.98;0.82;;;18.70;85.50;;;;;;5051813;28;20029;-71
2022/08/31 07:53:16;;;;;;;0.82;0.70;;;18.70;85.30;;;;;;5032711;28;20036;-71
2022/08/31 07:55:46;;;;;;;1.35;0.73;;;18.70;85.10;;;;;;5020515;28;20037;-75
2022/08/31 07:58:33;;;;;;;0.80;0.70;;;18.80;85.10;;;;;;5032311;28;20036;-73
2022/08/31 08:01:01;;;;;;;1.95;0.80;;;18.80;85.10;;;;;;5035063;28;20026;-74
2022/08/31 08:03:28;;;;;;;1.58;0.77;;;18.80;85.00;;;;;;5013091;28;20065;-74
2022/08/31 08:06:20;;;;;;;1.17;0.87;;;18.90;85.00;;;;;;5031394;28;20083;-74
2022/08/31 08:09:12;;;;;;;0.82;0.70;;;18.90;85.10;;;;;;5048200;28;20094;-75
2022/08/31 08:12:03;;;;;;;0.85;0.60;;;18.90;85.30;;;;;;5047524;28;20042;-75
2022/08/31 08:14:58;;;;;;;3.95;0.63;;;18.90;85.30;;;;;;5037931;28;20063;-74
2022/08/31 08:17:36;;;;;;;1.50;0.60;;;18.90;85.30;;;;;;5030997;28;20373;-76
2022/08/31 08:20:08;;;;;;;0.40;0.40;;;18.90;85.50;;;;;;5044430;28;20041;-75
2022/08/31 08:22:38;;;;;;;0.35;0.35;;;18.90;85.60;;;;;;5048836;28;20021;-74
2022/08/31 08:25:13;;;;;;;0.55;0.55;;;18.90;86.20;;;;;;5031574;28;20036;-74
2022/08/31 08:27:53;;;;;;;0.55;0.30;;;18.90;86.20;;;;;;5029898;28;20400;-74
2022/08/31 08:30:25;;;;;;;0.30;0.30;;;19.00;86.50;;;;;;5032513;28;20041;-76
2022/08/31 08:32:52;;;;;;;1.85;0.90;;;18.90;86.50;;;;;;5030926;28;20036;-76
2022/08/31 08:35:17;;;;;;;0.95;0.60;;;19.00;86.20;;;;;;5032390;28;20041;-75
2022/08/31 08:37:47;;;;;;;1.23;0.80;;;19.00;85.80;;;;;;5030699;28;20025;-75
2022/08/31 08:40:31;;;;;;;2.45;0.80;;;19.10;85.60;;;;;;5030340;28;20029;-74
2022/08/31 08:42:58;;;;;;;2.20;0.70;;;19.10;85.20;;;;;;5030632;28;20026;-74
2022/08/31 08:45:25;;;;;;;1.13;0.50;;;19.20;85.00;;;;;;5031155;28;20071;-75
2022/08/31 08:47:53;;;;;;;0.82;0.82;;;19.20;84.70;;;;;;5030358;28;20116;-75
2022/08/31 08:50:20;;;;;;;0.70;0.57;;;19.30;84.30;;;;;;5031933;28;20033;-75
2022/08/31 08:52:46;;;;;;;0.95;0.70;;;19.40;84.20;;;;;;5032793;28;20026;-75
2022/08/31 08:55:20;;;;;;;1.13;0.65;;;19.50;84.20;;;;;;5031656;28;20033;-75
2022/08/31 08:57:48;;;;;;;0.40;0.40;;;19.50;84.30;;;;;;5033291;28;20021;-75
2022/08/31 09:00:19;;;;;;;1.02;0.60;;;19.50;84.50;;;;;;5031048;28;20034;-75
2022/08/31 09:03:21;;;;;;;0.75;0.52;;;19.60;84.60;;;;;;5031710;28;20029;-75
2022/08/31 09:06:45;;;;;;;1.02;0.60;;;19.60;84.70;;;;;;5038126;28;20389;-75
2022/08/31 09:09:21;;;;;;;2.67;0.80;;;19.60;84.30;;;;;;5037514;28;20029;-75
2022/08/31 09:12:26;;;;;;;4.60;0.80;;;19.70;83.90;;;;;;5041155;28;20114;-75
2022/08/31 09:15:14;;;;;;;0.55;0.55;;;19.80;83.80;;;;;;5043623;28;20041;-75
2022/08/31 09:17:52;;;;;;;0.70;0.70;;;19.80;83.60;;;;;;5029894;28;20032;-74
2022/08/31 09:20:19;;;;;;;1.20;0.52;;;19.90;83.00;;;;;;5037711;28;20037;-73
2022/08/31 09:22:46;;;;;;;0.88;0.60;;;20.00;83.40;;;;;;5039449;28;20053;-73
2022/08/31 09:25:25;;;;;;;1.25;0.50;;;20.00;82.70;;;;;;5039740;28;20124;-74
2022/08/31 09:28:06;;;;;;;2.75;0.57;;;20.10;82.40;;;;;;5034278;28;20030;-74
2022/08/31 09:30:43;;;;;;;0.80;0.60;;;20.10;82.70;;;;;;5033826;28;20038;-76
2022/08/31 09:33:28;;;;;;;0.47;0.47;;;20.20;82.70;;;;;;5043449;28;20047;-74
2022/08/31 09:36:16;;;;;;;1.60;0.60;;;20.20;82.70;;;;;;5025950;28;20370;-78
2022/08/31 09:38:45;;;;;;;2.95;0.63;;;20.30;82.90;;;;;;5044889;28;20031;-72
2022/08/31 09:41:29;;;;;;;4.13;0.70;;;20.40;82.60;;;;;;5037584;28;20116;-75
2022/08/31 09:44:18;;;;;;;4.55;0.60;;;20.40;82.60;;;;;;5022503;28;20030;-75
2022/08/31 09:47:27;;;;;;;0.50;0.50;;;20.40;82.50;;;;;;5044654;28;20029;-75
2022/08/31 09:49:55;;;;;;;0.55;0.55;;;20.40;83.10;;;;;;5025365;28;20397;-75
2022/08/31 09:55:12;;;;;;;1.15;0.70;;;20.40;83.10;;;;;;5050060;28;20069;-75
2022/08/31 09:55:23;;;;;;;0.60;0.60;;;20.40;83.10;;;;;;5053596;28;20472;-75
2022/08/31 09:57:53;;;;;;;0.75;0.60;;;20.40;82.40;;;;;;5055215;28;20048;-75
2022/08/31 10:00:37;;;;;;;1.33;0.70;;;20.50;82.20;;;;;;5039687;28;20049;-76
2022/08/31 10:03:27;;;;;;;1.85;0.50;;;20.50;82.20;;;;;;5032311;28;20083;-75
2022/08/31 10:05:54;;;;;;;3.00;0.73;;;20.60;81.90;;;;;;5031724;28;20488;-75
2022/08/31 10:08:22;;;;;;;1.85;0.65;;;20.60;81.90;;;;;;5050459;28;20036;-75
2022/08/31 10:10:50;;;;;;;0.40;0.40;;;20.70;81.50;;;;;;5043847;28;20052;-73
2022/08/31 10:13:35;;;;;;;2.83;0.70;;;20.70;81.70;;;;;;5048929;28;20029;-75
2022/08/31 10:16:24;;;;;;;1.55;0.60;;;20.70;81.40;;;;;;5047630;28;20045;-75
2022/08/31 10:19:04;;;;;;;0.77;0.50;;;20.80;81.80;;;;;;5025716;28;20033;-76
2022/08/31 10:21:52;;;;;;;1.30;0.55;;;20.80;81.60;;;;;;5049262;28;20377;-75
2022/08/31 10:24:45;;;;;;;1.17;0.63;;;20.80;81.90;;;;;;5037204;28;20026;-75
2022/08/31 10:27:11;;;;;;;0.73;0.70;;;20.80;81.10;;;;;;5046708;28;20037;-75
2022/08/31 10:29:43;;;;;;;3.15;0.47;;;20.90;80.80;;;;;;5045583;28;20029;-75
2022/08/31 10:32:38;;;;;;;0.50;0.50;;;21.00;80.60;;;;;;5037142;28;20025;-72
2022/08/31 10:35:06;;;;;;;2.38;0.50;;;21.00;81.20;;;;;;5036649;28;20499;-75
2022/08/31 10:37:58;;;;;;;1.52;0.45;;;21.00;80.90;;;;;;5034332;28;20056;-73
2022/08/31 10:40:30;;;;;;;1.30;0.70;;;21.00;80.80;;;;;;5034752;28;20076;-74
2022/08/31 10:43:17;;;;;;;1.17;0.50;;;21.10;80.50;;;;;;5038723;28;20037;-74
2022/08/31 10:45:47;;;;;;;3.75;0.70;;;21.10;80.40;;;;;;5038741;28;20465;-74
2022/08/31 10:48:15;;;;;;;0.40;0.40;;;21.10;80.20;;;;;;5033858;28;20389;-72
2022/08/31 10:50:53;;;;;;;0.88;0.52;;;21.10;80.50;;;;;;5033632;28;20069;-74
2022/08/31 10:53:32;;;;;;;1.05;0.60;;;21.20;79.90;;;;;;5043856;28;20033;-72
2022/08/31 10:56:13;;;;;;;0.65;0.52;;;21.20;79.80;;;;;;5045707;28;20070;-74
2022/08/31 10:58:44;;;;;;;0.68;0.60;;;21.30;79.30;;;;;;5044812;28;20119;-74
2022/08/31 11:01:21;;;;;;;7.88;0.52;;;21.40;79.30;;;;;;5035625;28;20026;-74
2022/08/31 11:03:55;;;;;;;1.35;0.70;;;21.30;78.90;;;;;;5045110;28;20033;-74
2022/08/31 11:06:39;;;;;;;0.60;0.60;;;21.40;78.20;;;;;;5038822;28;20033;-75
2022/08/31 11:09:18;;;;;;;0.52;0.40;;;21.50;78.40;;;;;;5034924;28;20087;-74
2022/08/31 11:11:44;;;;;;;1.52;0.40;;;21.50;79.30;;;;;;5037146;28;20489;-75
2022/08/31 11:14:30;;;;;;;2.22;0.60;;;21.60;79.40;;;;;;5039357;28;20073;-74
2022/08/31 11:17:11;;;;;;;0.45;0.40;;;21.50;78.40;;;;;;5039609;28;20030;-74
2022/08/31 11:20:15;;;;;;;4.15;0.80;;;21.60;78.00;;;;;;5044985;28;20032;-75
2022/08/31 11:23:07;;;;;;;2.53;0.60;;;21.60;78.00;;;;;;5023104;28;20390;-74
2022/08/31 11:25:54;;;;;;;0.93;0.57;;;21.60;78.50;;;;;;5034116;28;20025;-74
2022/08/31 11:28:47;;;;;;;0.73;0.73;;;21.70;77.00;;;;;;5022757;28;20033;-74
2022/08/31 11:31:22;;;;;;;0.57;0.57;;;21.70;77.70;;;;;;5038062;28;20060;-73
2022/08/31 11:34:11;;;;;;;1.85;0.52;;;21.70;78.50;;;;;;5041698;28;20033;-74
2022/08/31 11:36:59;;;;;;;1.85;0.50;;;21.80;77.90;;;;;;5039772;28;20057;-74
2022/08/31 11:39:34;;;;;;;2.40;0.47;;;21.80;78.10;;;;;;5042828;28;20033;-74
2022/08/31 11:42:02;;;;;;;6.80;0.63;;;21.80;76.70;;;;;;5043952;28;20468;-74
2022/08/31 11:44:30;;;;;;;0.63;0.63;;;21.90;77.40;;;;;;5037807;28;20025;-74
2022/08/31 11:47:28;;;;;;;1.10;0.70;;;21.80;76.60;;;;;;5045208;28;20035;-74
2022/08/31 11:50:04;;;;;;;1.35;0.60;;;22.00;76.40;;;;;;5013730;28;20053;-74
2022/08/31 11:52:37;;;;;;;0.40;0.40;;;21.90;77.20;;;;;;5037518;28;20030;-74
2022/08/31 11:55:44;;;;;;;2.95;0.68;;;22.00;77.60;;;;;;5038239;28;20042;-74
2022/08/31 11:58:33;;;;;;;0.95;0.60;;;22.00;77.30;;;;;;5033366;28;20443;-74
2022/08/31 12:01:24;;;;;;;0.85;0.63;;;22.00;75.80;;;;;;5048494;28;20025;-75
2022/08/31 12:04:02;;;;;;;4.53;0.60;;;22.00;75.90;;;;;;5032499;28;20037;-75
2022/08/31 12:06:27;;;;;;;0.50;0.50;;;22.10;76.70;;;;;;5040598;28;20563;-74
2022/08/31 12:09:00;;;;;;;0.63;0.63;;;22.20;76.20;;;;;;5044580;28;20123;-75
2022/08/31 12:11:52;;;;;;;0.85;0.20;;;22.20;75.80;;;;;;5047921;28;20106;-74
2022/08/31 12:14:38;;;;;;;1.95;0.80;;;22.20;76.80;;;;;;5046820;28;20502;-75
2022/08/31 12:17:29;;;;;;;1.13;0.77;;;22.20;75.00;;;;;;5038803;28;20036;-74
2022/08/31 12:20:33;;;;;;;2.88;0.68;;;22.20;75.80;;;;;;5034598;28;20040;-73
2022/08/31 12:26:22;;;;;;;1.40;0.93;;;22.30;77.30;;;;;;5045645;28;21772;-74
2022/08/31 12:29:32;;;;;;;2.35;0.90;;;22.30;76.90;;;;;;5047476;28;20036;-75
2022/08/31 12:32:20;;;;;;;4.45;0.43;;;22.30;77.30;;;;;;5045540;28;20056;-74
2022/08/31 12:34:55;;;;;;;1.10;0.63;;;22.20;77.70;;;;;;5037177;28;20038;-74
2022/08/31 12:37:22;;;;;;;5.35;0.75;;;22.30;77.40;;;;;;5040865;28;20027;-74
2022/08/31 12:40:11;;;;;;;0.73;0.60;;;22.30;77.70;;;;;;5046227;28;20063;-74
2022/08/31 12:42:56;;;;;;;0.40;0.40;;;22.20;77.80;;;;;;5044430;28;20036;-74
2022/08/31 12:45:31;;;;;;;0.30;0.25;;;22.20;78.30;;;;;;5034410;28;20058;-74
2022/08/31 12:48:29;;;;;;;2.38;0.47;;;22.20;78.30;;;;;;5027106;28;20025;-74
2022/08/31 12:51:34;;;;;;;3.13;0.73;;;22.20;77.90;;;;;;5042597;28;20021;-74
2022/08/31 12:54:22;;;;;;;0.65;0.40;;;22.20;78.20;;;;;;5040879;28;20037;-74
2022/08/31 12:56:53;;;;;;;0.63;0.32;;;22.30;78.20;;;;;;5045630;28;20040;-74
2022/08/31 12:59:39;;;;;;;1.48;0.52;;;22.20;78.10;;;;;;5046728;28;20036;-74
2022/08/31 13:02:12;;;;;;;1.30;0.60;;;22.20;78.10;;;;;;5037741;28;20032;-74
2022/08/31 13:04:45;;;;;;;0.32;0.32;;;22.20;77.60;;;;;;5043456;28;20033;-74
2022/08/31 13:07:18;;;;;;;0.80;0.40;;;22.30;78.20;;;;;;5033362;28;20037;-72
2022/08/31 13:09:44;;;;;;;0.73;0.52;;;22.20;78.30;;;;;;5030526;28;20071;-72
2022/08/31 13:12:21;;;;;;;0.85;0.38;;;22.20;78.00;;;;;;5040989;28;20032;-75
2022/08/31 13:14:47;;;;;;;0.68;0.50;;;22.30;78.00;;;;;;5042496;28;20041;-70
2022/08/31 13:17:16;;;;;;;0.40;0.40;;;22.30;77.90;;;;;;5049370;28;20094;-74
2022/08/31 13:19:52;;;;;;;0.50;0.50;;;22.30;78.40;;;;;;5048490;28;20036;-75
2022/08/31 13:22:54;;;;;;;2.00;0.50;;;22.30;77.70;;;;;;5043161;28;20476;-73
2022/08/31 13:25:34;;;;;;;3.17;0.60;;;22.30;77.80;;;;;;5019270;28;20622;-72
2022/08/31 13:28:06;;;;;;;1.98;0.95;;;22.30;77.40;;;;;;5033599;28;20090;-74
2022/08/31 13:30:37;;;;;;;1.40;0.60;;;22.40;77.80;;;;;;5046785;28;20029;-72
2022/08/31 13:33:30;;;;;;;2.42;1.10;;;22.40;77.90;;;;;;5045356;28;20021;-74
2022/08/31 13:36:08;;;;;;;1.30;0.50;;;22.40;77.80;;;;;;5028286;28;20038;-72